sensor_id;sensor_type;location;lat;lon;timestamp;pressure;altitude;pressure_sealevel;temperature;humidity
75089;BME280;63673;49.928;8.150;2022-12-10T00:00:41;980.76;;;-0.47;100
75089;BME280;63673;49.928;8.150;2022-12-10T00:01:43;980.75;;;-0.47;100
75089;BME280;63673;49.928;8.150;2022-12-10T00:02:44;980.8;;;-0.48;100
75089;BME280;63673;49.928;8.150;2022-12-10T00:03:46;980.81;;;-0.48;100
75089;BME280;63673;49.928;8.150;2022-12-10T00:04:48;980.8;;;-0.48;100
75089;BME280;63673;49.928;8.150;2022-12-10T00:05:49;980.82;;;-0.49;100
75089;BME280;63673;49.928;8.150;2022-12-10T00:06:51;980.85;;;-0.49;100
75089;BME280;63673;49.928;8.150;2022-12-10T00:07:53;980.78;;;-0.48;100
75089;BME280;63673;49.928;8.150;2022-12-10T00:08:55;980.86;;;-0.49;100
75089;BME280;63673;49.928;8.150;2022-12-10T00:09:56;980.85;;;-0.5;100
75089;BME280;63673;49.928;8.150;2022-12-10T00:10:58;980.91;;;-0.5;100
75089;BME280;63673;49.928;8.150;2022-12-10T00:12:00;980.92;;;-0.5;100
75089;BME280;63673;49.928;8.150;2022-12-10T00:13:02;980.89;;;-0.5;100
75089;BME280;63673;49.928;8.150;2022-12-10T00:14:03;980.89;;;-0.5;100
75089;BME280;63673;49.928;8.150;2022-12-10T00:15:05;980.97;;;-0.5;100
75089;BME280;63673;49.928;8.150;2022-12-10T00:16:08;980.92;;;-0.5;100
75089;BME280;63673;49.928;8.150;2022-12-10T00:17:08;981.02;;;-0.51;100
75089;BME280;63673;49.928;8.150;2022-12-10T00:18:10;980.96;;;-0.5;100
75089;BME280;63673;49.928;8.150;2022-12-10T00:19:12;980.94;;;-0.5;100
75089;BME280;63673;49.928;8.150;2022-12-10T00:20:14;980.97;;;-0.51;100
75089;BME280;63673;49.928;8.150;2022-12-10T00:21:16;980.95;;;-0.5;100
75089;BME280;63673;49.928;8.150;2022-12-10T00:22:17;980.97;;;-0.51;100
75089;BME280;63673;49.928;8.150;2022-12-10T00:23:19;980.97;;;-0.5;100
75089;BME280;63673;49.928;8.150;2022-12-10T00:24:21;980.92;;;-0.51;100
75089;BME280;63673;49.928;8.150;2022-12-10T00:25:22;980.91;;;-0.51;100
75089;BME280;63673;49.928;8.150;2022-12-10T00:26:25;980.92;;;-0.52;100
75089;BME280;63673;49.928;8.150;2022-12-10T00:27:26;980.93;;;-0.51;100
75089;BME280;63673;49.928;8.150;2022-12-10T00:28:28;980.89;;;-0.53;100
75089;BME280;63673;49.928;8.150;2022-12-10T00:29:29;980.94;;;-0.53;100
75089;BME280;63673;49.928;8.150;2022-12-10T00:30:32;980.92;;;-0.52;100
75089;BME280;63673;49.928;8.150;2022-12-10T00:31:34;980.95;;;-0.53;100
75089;BME280;63673;49.928;8.150;2022-12-10T00:32:35;980.93;;;-0.54;100
75089;BME280;63673;49.928;8.150;2022-12-10T00:33:36;980.9;;;-0.54;100
75089;BME280;63673;49.928;8.150;2022-12-10T00:34:38;980.93;;;-0.54;100
75089;BME280;63673;49.928;8.150;2022-12-10T00:35:40;980.92;;;-0.55;100
75089;BME280;63673;49.928;8.150;2022-12-10T00:36:43;980.97;;;-0.55;100
75089;BME280;63673;49.928;8.150;2022-12-10T00:37:43;980.99;;;-0.56;100
75089;BME280;63673;49.928;8.150;2022-12-10T00:38:45;980.97;;;-0.57;100
75089;BME280;63673;49.928;8.150;2022-12-10T00:39:47;980.94;;;-0.58;100
75089;BME280;63673;49.928;8.150;2022-12-10T00:40:48;980.93;;;-0.57;100
75089;BME280;63673;49.928;8.150;2022-12-10T00:41:50;980.83;;;-0.59;100
75089;BME280;63673;49.928;8.150;2022-12-10T00:42:52;980.83;;;-0.59;100
75089;BME280;63673;49.928;8.150;2022-12-10T00:43:54;980.91;;;-0.6;100
75089;BME280;63673;49.928;8.150;2022-12-10T00:44:55;980.89;;;-0.58;100
75089;BME280;63673;49.928;8.150;2022-12-10T00:45:57;980.95;;;-0.6;100
75089;BME280;63673;49.928;8.150;2022-12-10T00:46:59;980.96;;;-0.59;100
75089;BME280;63673;49.928;8.150;2022-12-10T00:48:00;980.92;;;-0.59;100
75089;BME280;63673;49.928;8.150;2022-12-10T00:49:02;980.94;;;-0.59;100
75089;BME280;63673;49.928;8.150;2022-12-10T00:50:04;980.91;;;-0.61;100
75089;BME280;63673;49.928;8.150;2022-12-10T00:51:07;980.92;;;-0.6;100
75089;BME280;63673;49.928;8.150;2022-12-10T00:52:07;980.87;;;-0.62;100
75089;BME280;63673;49.928;8.150;2022-12-10T00:53:09;980.89;;;-0.62;100
75089;BME280;63673;49.928;8.150;2022-12-10T00:54:11;980.94;;;-0.61;100
75089;BME280;63673;49.928;8.150;2022-12-10T00:55:13;980.91;;;-0.6;100
75089;BME280;63673;49.928;8.150;2022-12-10T00:56:16;980.89;;;-0.6;100
75089;BME280;63673;49.928;8.150;2022-12-10T00:57:16;980.91;;;-0.62;100
75089;BME280;63673;49.928;8.150;2022-12-10T00:58:18;980.96;;;-0.61;100
75089;BME280;63673;49.928;8.150;2022-12-10T00:59:20;980.96;;;-0.61;100
75089;BME280;63673;49.928;8.150;2022-12-10T01:00:21;980.91;;;-0.61;100
75089;BME280;63673;49.928;8.150;2022-12-10T01:01:24;980.96;;;-0.62;100
75089;BME280;63673;49.928;8.150;2022-12-10T01:02:25;980.88;;;-0.6;100
75089;BME280;63673;49.928;8.150;2022-12-10T01:03:26;980.94;;;-0.6;100
75089;BME280;63673;49.928;8.150;2022-12-10T01:04:28;980.94;;;-0.61;100
75089;BME280;63673;49.928;8.150;2022-12-10T01:05:30;980.97;;;-0.6;100
75089;BME280;63673;49.928;8.150;2022-12-10T01:06:32;980.95;;;-0.61;100
75089;BME280;63673;49.928;8.150;2022-12-10T01:07:33;980.9;;;-0.61;100
75089;BME280;63673;49.928;8.150;2022-12-10T01:08:35;980.95;;;-0.6;100
75089;BME280;63673;49.928;8.150;2022-12-10T01:09:37;980.91;;;-0.61;100
75089;BME280;63673;49.928;8.150;2022-12-10T01:10:39;980.89;;;-0.6;100
75089;BME280;63673;49.928;8.150;2022-12-10T01:11:41;980.9;;;-0.61;100
75089;BME280;63673;49.928;8.150;2022-12-10T01:12:42;980.94;;;-0.6;100
75089;BME280;63673;49.928;8.150;2022-12-10T01:13:44;980.92;;;-0.61;100
75089;BME280;63673;49.928;8.150;2022-12-10T01:14:46;980.91;;;-0.61;100
75089;BME280;63673;49.928;8.150;2022-12-10T01:15:47;980.97;;;-0.6;100
75089;BME280;63673;49.928;8.150;2022-12-10T01:16:49;980.94;;;-0.62;100
75089;BME280;63673;49.928;8.150;2022-12-10T01:17:51;980.94;;;-0.62;100
75089;BME280;63673;49.928;8.150;2022-12-10T01:18:53;980.99;;;-0.62;100
75089;BME280;63673;49.928;8.150;2022-12-10T01:19:54;981.06;;;-0.64;100
75089;BME280;63673;49.928;8.150;2022-12-10T01:20:59;981.07;;;-0.65;100
75089;BME280;63673;49.928;8.150;2022-12-10T01:21:58;981.07;;;-0.64;100
75089;BME280;63673;49.928;8.150;2022-12-10T01:22:59;981.05;;;-0.65;100
75089;BME280;63673;49.928;8.150;2022-12-10T01:24:01;981.07;;;-0.65;100
75089;BME280;63673;49.928;8.150;2022-12-10T01:25:03;981.09;;;-0.66;100
75089;BME280;63673;49.928;8.150;2022-12-10T01:26:05;981.15;;;-0.66;100
75089;BME280;63673;49.928;8.150;2022-12-10T01:27:06;981.07;;;-0.67;100
75089;BME280;63673;49.928;8.150;2022-12-10T01:28:08;981.15;;;-0.67;100
75089;BME280;63673;49.928;8.150;2022-12-10T01:29:10;981.08;;;-0.68;100
75089;BME280;63673;49.928;8.150;2022-12-10T01:30:12;981.1;;;-0.67;100
75089;BME280;63673;49.928;8.150;2022-12-10T01:31:15;981.19;;;-0.69;100
75089;BME280;63673;49.928;8.150;2022-12-10T01:32:15;981.16;;;-0.7;100
75089;BME280;63673;49.928;8.150;2022-12-10T01:33:17;981.15;;;-0.7;100
75089;BME280;63673;49.928;8.150;2022-12-10T01:34:19;981.15;;;-0.71;100
75089;BME280;63673;49.928;8.150;2022-12-10T01:35:20;981.2;;;-0.72;100
75089;BME280;63673;49.928;8.150;2022-12-10T01:36:23;981.22;;;-0.72;100
75089;BME280;63673;49.928;8.150;2022-12-10T01:37:24;981.25;;;-0.72;100
75089;BME280;63673;49.928;8.150;2022-12-10T01:38:26;981.22;;;-0.74;100
75089;BME280;63673;49.928;8.150;2022-12-10T01:39:27;981.23;;;-0.74;100
75089;BME280;63673;49.928;8.150;2022-12-10T01:40:29;981.33;;;-0.74;100
75089;BME280;63673;49.928;8.150;2022-12-10T01:41:32;981.33;;;-0.75;100
75089;BME280;63673;49.928;8.150;2022-12-10T01:42:32;981.34;;;-0.75;100
75089;BME280;63673;49.928;8.150;2022-12-10T01:43:52;981.37;;;-0.76;100
75089;BME280;63673;49.928;8.150;2022-12-10T01:45:09;981.36;;;-0.77;100
75089;BME280;63673;49.928;8.150;2022-12-10T01:45:38;981.36;;;-0.76;100
75089;BME280;63673;49.928;8.150;2022-12-10T01:46:40;981.38;;;-0.76;100
75089;BME280;63673;49.928;8.150;2022-12-10T01:47:41;981.39;;;-0.78;100
75089;BME280;63673;49.928;8.150;2022-12-10T01:48:43;981.44;;;-0.78;100
75089;BME280;63673;49.928;8.150;2022-12-10T01:49:45;981.43;;;-0.78;100
75089;BME280;63673;49.928;8.150;2022-12-10T01:50:46;981.42;;;-0.79;100
75089;BME280;63673;49.928;8.150;2022-12-10T01:51:49;981.48;;;-0.8;100
75089;BME280;63673;49.928;8.150;2022-12-10T01:52:50;981.48;;;-0.79;100
75089;BME280;63673;49.928;8.150;2022-12-10T01:53:51;981.44;;;-0.8;100
75089;BME280;63673;49.928;8.150;2022-12-10T01:54:53;981.44;;;-0.81;100
75089;BME280;63673;49.928;8.150;2022-12-10T01:55:55;981.45;;;-0.81;100
75089;BME280;63673;49.928;8.150;2022-12-10T01:56:58;981.47;;;-0.81;100
75089;BME280;63673;49.928;8.150;2022-12-10T01:57:58;981.46;;;-0.82;100
75089;BME280;63673;49.928;8.150;2022-12-10T01:59:00;981.5;;;-0.82;100
75089;BME280;63673;49.928;8.150;2022-12-10T02:00:03;981.54;;;-0.82;100
75089;BME280;63673;49.928;8.150;2022-12-10T02:01:05;981.48;;;-0.83;100
75089;BME280;63673;49.928;8.150;2022-12-10T02:02:08;981.5;;;-0.84;100
75089;BME280;63673;49.928;8.150;2022-12-10T02:03:08;981.44;;;-0.84;100
75089;BME280;63673;49.928;8.150;2022-12-10T02:04:11;981.47;;;-0.85;100
75089;BME280;63673;49.928;8.150;2022-12-10T02:05:13;981.48;;;-0.86;100
75089;BME280;63673;49.928;8.150;2022-12-10T02:06:16;981.45;;;-0.86;100
75089;BME280;63673;49.928;8.150;2022-12-10T02:07:16;981.5;;;-0.87;100
75089;BME280;63673;49.928;8.150;2022-12-10T02:08:17;981.46;;;-0.88;100
75089;BME280;63673;49.928;8.150;2022-12-10T02:09:20;981.49;;;-0.87;100
75089;BME280;63673;49.928;8.150;2022-12-10T02:10:22;981.48;;;-0.89;100
75089;BME280;63673;49.928;8.150;2022-12-10T02:11:22;981.42;;;-0.89;100
75089;BME280;63673;49.928;8.150;2022-12-10T02:12:23;981.46;;;-0.88;100
75089;BME280;63673;49.928;8.150;2022-12-10T02:13:25;981.45;;;-0.89;100
75089;BME280;63673;49.928;8.150;2022-12-10T02:14:28;981.52;;;-0.91;100
75089;BME280;63673;49.928;8.150;2022-12-10T02:15:29;981.49;;;-0.9;100
75089;BME280;63673;49.928;8.150;2022-12-10T02:16:31;981.52;;;-0.89;100
75089;BME280;63673;49.928;8.150;2022-12-10T02:17:32;981.48;;;-0.9;100
75089;BME280;63673;49.928;8.150;2022-12-10T02:18:35;981.49;;;-0.91;100
75089;BME280;63673;49.928;8.150;2022-12-10T02:19:39;981.54;;;-0.91;100
75089;BME280;63673;49.928;8.150;2022-12-10T02:20:38;981.42;;;-0.91;100
75089;BME280;63673;49.928;8.150;2022-12-10T02:21:40;981.49;;;-0.92;100
75089;BME280;63673;49.928;8.150;2022-12-10T02:22:42;981.52;;;-0.91;100
75089;BME280;63673;49.928;8.150;2022-12-10T02:23:43;981.51;;;-0.91;100
75089;BME280;63673;49.928;8.150;2022-12-10T02:24:43;981.51;;;-0.93;100
75089;BME280;63673;49.928;8.150;2022-12-10T02:25:46;981.53;;;-0.94;100
75089;BME280;63673;49.928;8.150;2022-12-10T02:26:49;981.48;;;-0.94;100
75089;BME280;63673;49.928;8.150;2022-12-10T02:27:51;981.51;;;-0.95;100
75089;BME280;63673;49.928;8.150;2022-12-10T02:28:51;981.47;;;-0.95;100
75089;BME280;63673;49.928;8.150;2022-12-10T02:29:52;981.47;;;-0.95;100
75089;BME280;63673;49.928;8.150;2022-12-10T02:30:54;981.46;;;-0.97;100
75089;BME280;63673;49.928;8.150;2022-12-10T02:31:57;981.42;;;-0.97;100
75089;BME280;63673;49.928;8.150;2022-12-10T02:32:57;981.47;;;-0.97;100
75089;BME280;63673;49.928;8.150;2022-12-10T02:34:00;981.44;;;-0.97;100
75089;BME280;63673;49.928;8.150;2022-12-10T02:35:01;981.47;;;-0.97;100
75089;BME280;63673;49.928;8.150;2022-12-10T02:36:03;981.41;;;-0.99;100
75089;BME280;63673;49.928;8.150;2022-12-10T02:37:05;981.43;;;-0.98;100
75089;BME280;63673;49.928;8.150;2022-12-10T02:38:07;981.41;;;-1;100
75089;BME280;63673;49.928;8.150;2022-12-10T02:39:09;981.45;;;-1;100
75089;BME280;63673;49.928;8.150;2022-12-10T02:40:11;981.45;;;-1;100
75089;BME280;63673;49.928;8.150;2022-12-10T02:41:12;981.44;;;-1.01;100
75089;BME280;63673;49.928;8.150;2022-12-10T02:42:13;981.42;;;-1.01;100
75089;BME280;63673;49.928;8.150;2022-12-10T02:43:15;981.42;;;-1.02;100
75089;BME280;63673;49.928;8.150;2022-12-10T02:44:16;981.46;;;-1;100
75089;BME280;63673;49.928;8.150;2022-12-10T02:45:19;981.46;;;-1.02;100
75089;BME280;63673;49.928;8.150;2022-12-10T02:46:20;981.46;;;-1.03;100
75089;BME280;63673;49.928;8.150;2022-12-10T02:47:22;981.44;;;-1.02;100
75089;BME280;63673;49.928;8.150;2022-12-10T02:48:23;981.52;;;-1.03;100
75089;BME280;63673;49.928;8.150;2022-12-10T02:49:25;981.44;;;-1.03;100
75089;BME280;63673;49.928;8.150;2022-12-10T02:50:27;981.49;;;-1.04;100
75089;BME280;63673;49.928;8.150;2022-12-10T02:51:29;981.52;;;-1.04;100
75089;BME280;63673;49.928;8.150;2022-12-10T02:52:30;981.52;;;-1.05;100
75089;BME280;63673;49.928;8.150;2022-12-10T02:53:32;981.51;;;-1.05;100
75089;BME280;63673;49.928;8.150;2022-12-10T02:54:35;981.51;;;-1.06;100
75089;BME280;63673;49.928;8.150;2022-12-10T02:55:40;981.54;;;-1.06;100
75089;BME280;63673;49.928;8.150;2022-12-10T02:56:39;981.49;;;-1.07;100
75089;BME280;63673;49.928;8.150;2022-12-10T02:57:40;981.5;;;-1.07;100
75089;BME280;63673;49.928;8.150;2022-12-10T02:58:42;981.48;;;-1.08;100
75089;BME280;63673;49.928;8.150;2022-12-10T02:59:47;981.49;;;-1.07;100
75089;BME280;63673;49.928;8.150;2022-12-10T03:00:45;981.49;;;-1.09;100
75089;BME280;63673;49.928;8.150;2022-12-10T03:01:49;981.52;;;-1.08;100
75089;BME280;63673;49.928;8.150;2022-12-10T03:02:52;981.51;;;-1.08;100
75089;BME280;63673;49.928;8.150;2022-12-10T03:03:51;981.49;;;-1.08;100
75089;BME280;63673;49.928;8.150;2022-12-10T03:04:52;981.5;;;-1.1;100
75089;BME280;63673;49.928;8.150;2022-12-10T03:05:54;981.51;;;-1.09;100
75089;BME280;63673;49.928;8.150;2022-12-10T03:06:55;981.57;;;-1.1;100
75089;BME280;63673;49.928;8.150;2022-12-10T03:07:57;981.54;;;-1.11;100
75089;BME280;63673;49.928;8.150;2022-12-10T03:08:59;981.52;;;-1.11;100
75089;BME280;63673;49.928;8.150;2022-12-10T03:10:01;981.56;;;-1.12;100
75089;BME280;63673;49.928;8.150;2022-12-10T03:11:04;981.51;;;-1.1;100
75089;BME280;63673;49.928;8.150;2022-12-10T03:12:06;981.55;;;-1.12;100
75089;BME280;63673;49.928;8.150;2022-12-10T03:13:06;981.47;;;-1.13;100
75089;BME280;63673;49.928;8.150;2022-12-10T03:14:08;981.48;;;-1.13;100
75089;BME280;63673;49.928;8.150;2022-12-10T03:15:09;981.44;;;-1.13;100
75089;BME280;63673;49.928;8.150;2022-12-10T03:16:10;981.46;;;-1.13;100
75089;BME280;63673;49.928;8.150;2022-12-10T03:17:12;981.45;;;-1.14;100
75089;BME280;63673;49.928;8.150;2022-12-10T03:18:14;981.41;;;-1.13;100
75089;BME280;63673;49.928;8.150;2022-12-10T03:19:16;981.44;;;-1.15;100
75089;BME280;63673;49.928;8.150;2022-12-10T03:20:17;981.41;;;-1.15;100
75089;BME280;63673;49.928;8.150;2022-12-10T03:21:19;981.49;;;-1.15;100
75089;BME280;63673;49.928;8.150;2022-12-10T03:22:21;981.42;;;-1.15;100
75089;BME280;63673;49.928;8.150;2022-12-10T03:23:22;981.43;;;-1.15;100
75089;BME280;63673;49.928;8.150;2022-12-10T03:24:24;981.4;;;-1.17;100
75089;BME280;63673;49.928;8.150;2022-12-10T03:25:26;981.39;;;-1.17;100
75089;BME280;63673;49.928;8.150;2022-12-10T03:26:27;981.37;;;-1.17;100
75089;BME280;63673;49.928;8.150;2022-12-10T03:27:29;981.38;;;-1.17;100
75089;BME280;63673;49.928;8.150;2022-12-10T03:28:31;981.37;;;-1.18;100
75089;BME280;63673;49.928;8.150;2022-12-10T03:29:33;981.39;;;-1.18;100
75089;BME280;63673;49.928;8.150;2022-12-10T03:30:35;981.35;;;-1.18;100
75089;BME280;63673;49.928;8.150;2022-12-10T03:31:36;981.37;;;-1.19;100
75089;BME280;63673;49.928;8.150;2022-12-10T03:32:38;981.33;;;-1.19;100
75089;BME280;63673;49.928;8.150;2022-12-10T03:33:40;981.37;;;-1.21;100
75089;BME280;63673;49.928;8.150;2022-12-10T03:34:42;981.34;;;-1.21;100
75089;BME280;63673;49.928;8.150;2022-12-10T03:35:43;981.42;;;-1.22;100
75089;BME280;63673;49.928;8.150;2022-12-10T03:36:45;981.43;;;-1.23;100
75089;BME280;63673;49.928;8.150;2022-12-10T03:37:46;981.42;;;-1.23;100
75089;BME280;63673;49.928;8.150;2022-12-10T03:38:49;981.42;;;-1.23;100
75089;BME280;63673;49.928;8.150;2022-12-10T03:39:50;981.46;;;-1.24;100
75089;BME280;63673;49.928;8.150;2022-12-10T03:40:52;981.47;;;-1.25;100
75089;BME280;63673;49.928;8.150;2022-12-10T03:41:53;981.46;;;-1.26;100
75089;BME280;63673;49.928;8.150;2022-12-10T03:42:55;981.49;;;-1.26;100
75089;BME280;63673;49.928;8.150;2022-12-10T03:43:58;981.47;;;-1.27;100
75089;BME280;63673;49.928;8.150;2022-12-10T03:44:59;981.44;;;-1.27;100
75089;BME280;63673;49.928;8.150;2022-12-10T03:46:00;981.5;;;-1.27;100
75089;BME280;63673;49.928;8.150;2022-12-10T03:47:03;981.44;;;-1.29;100
75089;BME280;63673;49.928;8.150;2022-12-10T03:48:04;981.48;;;-1.3;100
75089;BME280;63673;49.928;8.150;2022-12-10T03:49:06;981.46;;;-1.3;100
75089;BME280;63673;49.928;8.150;2022-12-10T03:50:08;981.46;;;-1.31;100
75089;BME280;63673;49.928;8.150;2022-12-10T03:51:09;981.51;;;-1.32;100
75089;BME280;63673;49.928;8.150;2022-12-10T03:52:11;981.51;;;-1.33;100
75089;BME280;63673;49.928;8.150;2022-12-10T03:53:13;981.46;;;-1.33;100
75089;BME280;63673;49.928;8.150;2022-12-10T03:54:14;981.47;;;-1.33;100
75089;BME280;63673;49.928;8.150;2022-12-10T03:55:16;981.52;;;-1.34;100
75089;BME280;63673;49.928;8.150;2022-12-10T03:56:18;981.47;;;-1.35;100
75089;BME280;63673;49.928;8.150;2022-12-10T03:57:19;981.49;;;-1.36;100
75089;BME280;63673;49.928;8.150;2022-12-10T03:58:21;981.45;;;-1.36;100
75089;BME280;63673;49.928;8.150;2022-12-10T03:59:23;981.48;;;-1.38;100
75089;BME280;63673;49.928;8.150;2022-12-10T04:00:25;981.53;;;-1.39;100
75089;BME280;63673;49.928;8.150;2022-12-10T04:01:26;981.54;;;-1.41;100
75089;BME280;63673;49.928;8.150;2022-12-10T04:02:28;981.55;;;-1.42;100
75089;BME280;63673;49.928;8.150;2022-12-10T04:03:30;981.56;;;-1.42;100
75089;BME280;63673;49.928;8.150;2022-12-10T04:04:32;981.52;;;-1.43;100
75089;BME280;63673;49.928;8.150;2022-12-10T04:05:33;981.6;;;-1.43;100
75089;BME280;63673;49.928;8.150;2022-12-10T04:06:36;981.53;;;-1.44;100
75089;BME280;63673;49.928;8.150;2022-12-10T04:07:37;981.68;;;-1.45;100
75089;BME280;63673;49.928;8.150;2022-12-10T04:08:38;981.59;;;-1.46;100
75089;BME280;63673;49.928;8.150;2022-12-10T04:09:40;981.57;;;-1.47;100
75089;BME280;63673;49.928;8.150;2022-12-10T04:10:42;981.63;;;-1.49;100
75089;BME280;63673;49.928;8.150;2022-12-10T04:11:44;981.62;;;-1.49;100
75089;BME280;63673;49.928;8.150;2022-12-10T04:12:45;981.6;;;-1.51;100
75089;BME280;63673;49.928;8.150;2022-12-10T04:13:47;981.62;;;-1.51;100
75089;BME280;63673;49.928;8.150;2022-12-10T04:14:49;981.6;;;-1.52;100
75089;BME280;63673;49.928;8.150;2022-12-10T04:15:51;981.55;;;-1.52;100
75089;BME280;63673;49.928;8.150;2022-12-10T04:16:52;981.53;;;-1.53;100
75089;BME280;63673;49.928;8.150;2022-12-10T04:17:54;981.55;;;-1.55;100
75089;BME280;63673;49.928;8.150;2022-12-10T04:18:57;981.54;;;-1.54;100
75089;BME280;63673;49.928;8.150;2022-12-10T04:19:57;981.55;;;-1.56;100
75089;BME280;63673;49.928;8.150;2022-12-10T04:20:59;981.55;;;-1.57;100
75089;BME280;63673;49.928;8.150;2022-12-10T04:22:01;981.52;;;-1.58;100
75089;BME280;63673;49.928;8.150;2022-12-10T04:23:03;981.61;;;-1.58;100
75089;BME280;63673;49.928;8.150;2022-12-10T04:24:05;981.61;;;-1.61;100
75089;BME280;63673;49.928;8.150;2022-12-10T04:25:07;981.57;;;-1.61;100
75089;BME280;63673;49.928;8.150;2022-12-10T04:26:08;981.63;;;-1.61;100
75089;BME280;63673;49.928;8.150;2022-12-10T04:27:10;981.57;;;-1.62;100
75089;BME280;63673;49.928;8.150;2022-12-10T04:28:11;981.59;;;-1.63;100
75089;BME280;63673;49.928;8.150;2022-12-10T04:29:13;981.6;;;-1.64;100
75089;BME280;63673;49.928;8.150;2022-12-10T04:30:15;981.61;;;-1.65;100
75089;BME280;63673;49.928;8.150;2022-12-10T04:31:17;981.62;;;-1.67;100
75089;BME280;63673;49.928;8.150;2022-12-10T04:32:18;981.64;;;-1.67;100
75089;BME280;63673;49.928;8.150;2022-12-10T04:33:20;981.66;;;-1.66;100
75089;BME280;63673;49.928;8.150;2022-12-10T04:34:22;981.68;;;-1.69;100
75089;BME280;63673;49.928;8.150;2022-12-10T04:35:24;981.66;;;-1.68;100
75089;BME280;63673;49.928;8.150;2022-12-10T04:36:25;981.7;;;-1.7;100
75089;BME280;63673;49.928;8.150;2022-12-10T04:37:27;981.69;;;-1.7;100
75089;BME280;63673;49.928;8.150;2022-12-10T04:38:29;981.65;;;-1.7;100
75089;BME280;63673;49.928;8.150;2022-12-10T04:39:31;981.63;;;-1.71;100
75089;BME280;63673;49.928;8.150;2022-12-10T04:40:32;981.73;;;-1.72;100
75089;BME280;63673;49.928;8.150;2022-12-10T04:41:34;981.66;;;-1.73;100
75089;BME280;63673;49.928;8.150;2022-12-10T04:42:36;981.7;;;-1.73;100
75089;BME280;63673;49.928;8.150;2022-12-10T04:43:38;981.75;;;-1.72;100
75089;BME280;63673;49.928;8.150;2022-12-10T04:44:39;981.76;;;-1.73;100
75089;BME280;63673;49.928;8.150;2022-12-10T04:45:41;981.67;;;-1.73;100
75089;BME280;63673;49.928;8.150;2022-12-10T04:46:43;981.73;;;-1.73;100
75089;BME280;63673;49.928;8.150;2022-12-10T04:47:44;981.76;;;-1.75;100
75089;BME280;63673;49.928;8.150;2022-12-10T04:48:46;981.75;;;-1.74;100
75089;BME280;63673;49.928;8.150;2022-12-10T04:49:48;981.79;;;-1.75;100
75089;BME280;63673;49.928;8.150;2022-12-10T04:50:50;981.76;;;-1.74;100
75089;BME280;63673;49.928;8.150;2022-12-10T04:51:51;981.71;;;-1.75;100
75089;BME280;63673;49.928;8.150;2022-12-10T04:52:53;981.73;;;-1.76;100
75089;BME280;63673;49.928;8.150;2022-12-10T04:53:55;981.56;;;-1.77;100
75089;BME280;63673;49.928;8.150;2022-12-10T04:54:56;981.62;;;-1.77;100
75089;BME280;63673;49.928;8.150;2022-12-10T04:55:58;981.65;;;-1.78;100
75089;BME280;63673;49.928;8.150;2022-12-10T04:57:00;981.66;;;-1.79;100
75089;BME280;63673;49.928;8.150;2022-12-10T04:58:02;981.69;;;-1.78;100
75089;BME280;63673;49.928;8.150;2022-12-10T04:59:04;981.66;;;-1.77;100
75089;BME280;63673;49.928;8.150;2022-12-10T05:00:05;981.65;;;-1.77;100
75089;BME280;63673;49.928;8.150;2022-12-10T05:01:08;981.65;;;-1.77;100
75089;BME280;63673;49.928;8.150;2022-12-10T05:02:09;981.63;;;-1.78;100
75089;BME280;63673;49.928;8.150;2022-12-10T05:03:10;981.7;;;-1.79;100
75089;BME280;63673;49.928;8.150;2022-12-10T05:04:13;981.66;;;-1.79;100
75089;BME280;63673;49.928;8.150;2022-12-10T05:05:14;981.7;;;-1.8;100
75089;BME280;63673;49.928;8.150;2022-12-10T05:06:16;981.64;;;-1.8;100
75089;BME280;63673;49.928;8.150;2022-12-10T05:07:17;981.7;;;-1.81;100
75089;BME280;63673;49.928;8.150;2022-12-10T05:08:19;981.67;;;-1.81;100
75089;BME280;63673;49.928;8.150;2022-12-10T05:09:21;981.7;;;-1.83;100
75089;BME280;63673;49.928;8.150;2022-12-10T05:10:22;981.77;;;-1.84;100
75089;BME280;63673;49.928;8.150;2022-12-10T05:11:25;981.77;;;-1.84;100
75089;BME280;63673;49.928;8.150;2022-12-10T05:12:26;981.74;;;-1.86;100
75089;BME280;63673;49.928;8.150;2022-12-10T05:13:28;981.76;;;-1.87;100
75089;BME280;63673;49.928;8.150;2022-12-10T05:14:29;981.76;;;-1.89;100
75089;BME280;63673;49.928;8.150;2022-12-10T05:15:31;981.81;;;-1.91;100
75089;BME280;63673;49.928;8.150;2022-12-10T05:16:33;981.83;;;-1.93;100
75089;BME280;63673;49.928;8.150;2022-12-10T05:17:35;981.77;;;-1.93;100
75089;BME280;63673;49.928;8.150;2022-12-10T05:18:36;981.81;;;-1.95;100
75089;BME280;63673;49.928;8.150;2022-12-10T05:19:38;981.73;;;-1.98;100
75089;BME280;63673;49.928;8.150;2022-12-10T05:20:40;981.83;;;-1.99;100
75089;BME280;63673;49.928;8.150;2022-12-10T05:21:41;981.8;;;-2.01;100
75089;BME280;63673;49.928;8.150;2022-12-10T05:22:43;981.83;;;-2.02;100
75089;BME280;63673;49.928;8.150;2022-12-10T05:23:46;981.86;;;-2.05;100
75089;BME280;63673;49.928;8.150;2022-12-10T05:24:47;981.86;;;-2.05;100
75089;BME280;63673;49.928;8.150;2022-12-10T05:25:48;981.87;;;-2.07;100
75089;BME280;63673;49.928;8.150;2022-12-10T05:26:50;981.9;;;-2.09;100
75089;BME280;63673;49.928;8.150;2022-12-10T05:27:52;981.86;;;-2.11;100
75089;BME280;63673;49.928;8.150;2022-12-10T05:28:54;981.93;;;-2.14;100
75089;BME280;63673;49.928;8.150;2022-12-10T05:29:55;981.9;;;-2.16;100
75089;BME280;63673;49.928;8.150;2022-12-10T05:30:57;981.93;;;-2.18;100
75089;BME280;63673;49.928;8.150;2022-12-10T05:31:59;981.92;;;-2.2;100
75089;BME280;63673;49.928;8.150;2022-12-10T05:33:01;981.89;;;-2.23;100
75089;BME280;63673;49.928;8.150;2022-12-10T05:34:02;981.92;;;-2.23;100
75089;BME280;63673;49.928;8.150;2022-12-10T05:35:04;981.89;;;-2.26;100
75089;BME280;63673;49.928;8.150;2022-12-10T05:36:06;981.91;;;-2.28;100
75089;BME280;63673;49.928;8.150;2022-12-10T05:37:08;981.88;;;-2.29;100
75089;BME280;63673;49.928;8.150;2022-12-10T05:38:09;981.9;;;-2.31;100
75089;BME280;63673;49.928;8.150;2022-12-10T05:39:11;981.97;;;-2.33;100
75089;BME280;63673;49.928;8.150;2022-12-10T05:40:13;981.94;;;-2.35;100
75089;BME280;63673;49.928;8.150;2022-12-10T05:41:15;981.96;;;-2.35;100
75089;BME280;63673;49.928;8.150;2022-12-10T05:42:16;981.99;;;-2.38;100
75089;BME280;63673;49.928;8.150;2022-12-10T05:43:18;981.96;;;-2.38;100
75089;BME280;63673;49.928;8.150;2022-12-10T05:44:20;982.02;;;-2.38;100
75089;BME280;63673;49.928;8.150;2022-12-10T05:45:21;982.01;;;-2.38;100
75089;BME280;63673;49.928;8.150;2022-12-10T05:46:25;982.03;;;-2.4;100